Plymouth, ME (04969)

5:39 PM EDT on August 30, 2015 (GMT -0400)
APRSWXNET | | Change Station
CLOSE
Current Station
Personal Weather Station
Location: Plymouth, ME
Elevation: 316 ft
Nearby Weather Stations

Elev 316 ft 44.80 °N, 69.26 °W | Updated 28 minutes ago

Mostly Cloudy
Mostly Cloudy
76 °F
Feels Like 78 °F
N
1
Wind Variable Wind from West
Gusts 4.0 mph

Today
High -- | Low -- °F
--% Chance of Precip.
Yesterday
High -- | Low -- °F
Precip. -- in
5:56 AM 7:17 PM
Full, 98% visible
Pressure 29.96 in
Visibility 10.0 miles
Clouds Scattered Clouds 4800 ft
Mostly Cloudy 7500 ft
Mostly Cloudy 18000 ft
Heat Index 78 °F
Dew Point 66 °F
Humidity 71%
Rainfall in
Snow Depth Not available.
UV 1 out of 12
Pollen 7.30 out of 12
Air Quality Not available.
Flu Activity Not available.
METAR KBGR 302053Z 26005KT 10SM SCT048 BKN075 BKN180 27/16 A2997 RMK AO2 SLP146 T02670156 56009
Pressure 29.96 in
Visibility 10.0 miles
Clouds Scattered Clouds 4800 ft
Mostly Cloudy 7500 ft
Mostly Cloudy 18000 ft
Heat Index 78 °F
Dew Point 66 °F
Humidity 71%
Rainfall in
Snow Depth Not available.
UV 1 out of 12
Pollen 7.30 out of 12
Air Quality Not available.
Flu Activity Not available.
METAR KBGR 302053Z 26005KT 10SM SCT048 BKN075 BKN180 27/16 A2997 RMK AO2 SLP146 T02670156 56009

10-Day Weather Forecast

×

Almanac

Astronomy

Aug. 30, 2015 Rise Set
Actual Time
Civil Twilight
Nautical Twilight
Astronomical Twilight
Moon
Length of Visible Light
Length of Day
Tomorrow will be .
, % of the Moon is Illuminated

Today's Extremes

State Highs State Lows

Community

WunderPhotos

Upload Photos

1,851,063 photos uploaded!

WunderBlogs® & News

Nearby

Air Quality

  Air Quality AQ Index Pollutant
Not available.

Snow Depth

Station Depth Elevation

Earthquake Activity

City Distance Mag. Time & Date
Minimum magnitude displayed is 2.5.

Coastal Water Temperatures

Place Temperature

Stations

Nearby Weather Stations

Station Location Temp. Windchill Dew Point Humidity Wind Precip. Elev Updated Type